Time;durP1;ratioP1;P1;durP2;ratioP2;P2;SDS_P1;SDS_P2;PMS_P1;PMS_P2;Temp;Humidity;BMP_temperature;BMP_pressure;BME280_temperature;BME280_humidity;BME280_pressure;Samples;Min_cycle;Max_cycle;Signal;HPM_P1;HPM_P2
2021/06/21 00:00:22;;;;;;;10.00;7.57;;;22.10;98.20;;;;;;5086293;28;20480;-84
2021/06/21 00:02:47;;;;;;;8.25;6.72;;;22.00;98.70;;;;;;5086498;28;20029;-84
2021/06/21 00:05:15;;;;;;;11.15;7.32;;;22.00;99.10;;;;;;5086880;28;20032;-84
2021/06/21 00:07:41;;;;;;;10.40;7.35;;;22.00;99.20;;;;;;5085368;28;20029;-84
2021/06/21 00:10:08;;;;;;;10.25;7.05;;;22.00;99.40;;;;;;5084624;28;20024;-84
2021/06/21 00:12:34;;;;;;;9.05;7.97;;;22.00;99.30;;;;;;5085011;28;20024;-83
2021/06/21 00:15:00;;;;;;;9.55;8.38;;;22.00;99.50;;;;;;5086616;28;20085;-84
2021/06/21 00:17:26;;;;;;;10.35;8.65;;;22.00;99.80;;;;;;5077105;28;20041;-84
2021/06/21 00:19:52;;;;;;;12.55;9.70;;;22.00;99.20;;;;;;5071136;28;20024;-83
2021/06/21 00:22:18;;;;;;;11.90;8.45;;;22.00;99.20;;;;;;5073039;28;20021;-84
2021/06/21 00:24:45;;;;;;;10.00;7.93;;;22.00;99.50;;;;;;5071520;28;20024;-84
2021/06/21 00:27:12;;;;;;;9.88;8.85;;;22.00;99.80;;;;;;5072970;28;20128;-83
2021/06/21 00:29:38;;;;;;;10.95;8.48;;;22.00;99.90;;;;;;5070814;28;20059;-84
2021/06/21 00:32:04;;;;;;;11.60;10.20;;;22.00;99.80;;;;;;5072632;28;20103;-83
2021/06/21 00:34:30;;;;;;;11.50;10.30;;;22.00;99.90;;;;;;5072732;28;20021;-84
2021/06/21 00:36:56;;;;;;;10.20;9.10;;;22.00;99.90;;;;;;5072688;28;20032;-84
2021/06/21 00:39:21;;;;;;;9.32;8.32;;;21.90;99.90;;;;;;5072267;28;20527;-90
2021/06/21 00:41:47;;;;;;;9.40;8.05;;;21.90;99.90;;;;;;5070987;28;20040;-86
2021/06/21 00:44:13;;;;;;;9.57;8.52;;;22.00;99.90;;;;;;5072647;28;20075;-83
2021/06/21 00:46:38;;;;;;;12.30;9.02;;;21.90;99.90;;;;;;5070892;28;20032;-84
2021/06/21 00:49:04;;;;;;;9.60;8.35;;;21.90;99.90;;;;;;5071923;28;20024;-84
2021/06/21 00:51:31;;;;;;;9.02;7.63;;;21.90;99.90;;;;;;5072193;28;20021;-83
2021/06/21 00:53:56;;;;;;;11.45;8.50;;;21.80;99.90;;;;;;5071363;28;20016;-83
2021/06/21 00:56:23;;;;;;;9.88;7.47;;;21.80;99.90;;;;;;5072361;28;20036;-84
2021/06/21 00:58:52;;;;;;;9.85;7.35;;;21.80;99.90;;;;;;5072328;28;20496;-83
2021/06/21 01:01:18;;;;;;;8.50;6.90;;;21.80;99.90;;;;;;5071946;28;20031;-84
2021/06/21 01:03:44;;;;;;;7.80;6.25;;;21.80;99.90;;;;;;5072463;28;20028;-84
2021/06/21 01:06:09;;;;;;;10.70;8.32;;;21.80;99.90;;;;;;5072025;28;20039;-84
2021/06/21 01:08:35;;;;;;;10.65;8.18;;;21.80;99.90;;;;;;5072346;28;20016;-84
2021/06/21 01:11:01;;;;;;;16.23;11.65;;;21.80;99.90;;;;;;5070364;28;20020;-84
2021/06/21 01:13:46;;;;;;;11.20;8.07;;;21.70;99.90;;;;;;5072465;28;20028;-84
2021/06/21 01:16:30;;;;;;;9.68;7.60;;;21.70;99.90;;;;;;5071973;28;20040;-83
2021/06/21 01:19:07;;;;;;;10.40;8.18;;;21.60;99.90;;;;;;5071637;28;20029;-83
2021/06/21 01:21:57;;;;;;;10.02;8.02;;;21.60;99.90;;;;;;5070393;28;20044;-84
2021/06/21 01:24:45;;;;;;;10.63;8.40;;;21.60;99.90;;;;;;5072023;28;20031;-84
2021/06/21 01:27:38;;;;;;;10.50;8.70;;;21.60;99.90;;;;;;5071914;28;20050;-83
2021/06/21 01:30:07;;;;;;;9.77;8.10;;;21.60;99.90;;;;;;5070788;28;20028;-84
2021/06/21 01:32:51;;;;;;;8.57;7.45;;;21.50;99.90;;;;;;5070197;28;20035;-84
2021/06/21 01:35:39;;;;;;;9.85;7.45;;;21.50;99.90;;;;;;5072032;28;20106;-83
2021/06/21 01:38:09;;;;;;;10.48;8.57;;;21.50;99.90;;;;;;5070580;28;20425;-84
2021/06/21 01:40:44;;;;;;;8.82;7.60;;;21.50;99.90;;;;;;5069710;28;20021;-83
2021/06/21 01:43:14;;;;;;;8.27;7.45;;;21.50;99.90;;;;;;5070205;28;20519;-84
2021/06/21 01:45:41;;;;;;;11.25;9.10;;;21.50;99.90;;;;;;5070243;28;20036;-83
2021/06/21 01:48:08;;;;;;;11.52;9.18;;;21.40;99.90;;;;;;5070516;28;20114;-84
2021/06/21 01:50:34;;;;;;;9.75;8.80;;;21.40;99.90;;;;;;5070857;28;20473;-84
2021/06/21 01:53:10;;;;;;;9.50;8.13;;;21.40;99.90;;;;;;5069785;28;20092;-83
2021/06/21 01:55:42;;;;;;;8.57;7.68;;;21.40;99.90;;;;;;5069931;28;20062;-83
2021/06/21 01:58:10;;;;;;;10.50;9.45;;;21.40;99.90;;;;;;5071302;28;20420;-84
2021/06/21 02:00:38;;;;;;;12.25;8.52;;;21.40;99.90;;;;;;5069146;28;20478;-84
2021/06/21 02:03:06;;;;;;;10.00;8.70;;;21.30;99.90;;;;;;5071133;28;20032;-84
2021/06/21 02:05:34;;;;;;;13.32;8.70;;;21.30;99.90;;;;;;5071177;28;20029;-84
2021/06/21 02:08:00;;;;;;;13.02;9.50;;;21.30;99.90;;;;;;5071000;28;20487;-84
2021/06/21 02:10:27;;;;;;;10.07;9.07;;;21.30;99.90;;;;;;5069754;28;20078;-84
2021/06/21 02:12:54;;;;;;;10.40;9.30;;;21.30;99.90;;;;;;5070444;28;20027;-84
2021/06/21 02:15:22;;;;;;;10.65;8.10;;;21.20;99.90;;;;;;5070964;28;20029;-84
2021/06/21 02:17:49;;;;;;;10.77;8.35;;;21.20;99.90;;;;;;5069291;28;20035;-84
2021/06/21 02:20:15;;;;;;;9.88;8.88;;;21.10;99.90;;;;;;5070414;28;20029;-84
2021/06/21 02:22:41;;;;;;;9.98;7.80;;;21.00;99.90;;;;;;5070589;28;20029;-84
2021/06/21 02:25:07;;;;;;;8.38;7.30;;;21.00;99.90;;;;;;5070752;28;20107;-84
2021/06/21 02:27:36;;;;;;;7.40;6.60;;;21.00;99.90;;;;;;5070586;28;20035;-84
2021/06/21 02:30:08;;;;;;;7.30;6.50;;;21.00;99.90;;;;;;5070203;28;20350;-84
2021/06/21 02:32:35;;;;;;;8.82;7.93;;;21.00;99.90;;;;;;5070149;28;20031;-84
2021/06/21 02:35:01;;;;;;;10.38;8.07;;;20.90;99.90;;;;;;5069130;28;20048;-83
2021/06/21 02:37:27;;;;;;;9.18;8.27;;;20.90;99.90;;;;;;5069111;28;20055;-84
2021/06/21 02:39:52;;;;;;;10.38;9.38;;;20.90;99.90;;;;;;5069853;28;20032;-84
2021/06/21 02:42:18;;;;;;;11.85;10.00;;;20.80;99.90;;;;;;5070289;28;20485;-84
2021/06/21 02:44:44;;;;;;;11.27;10.07;;;20.70;99.90;;;;;;5070206;28;20028;-84
2021/06/21 02:47:11;;;;;;;11.43;10.30;;;20.70;99.90;;;;;;5070070;28;20047;-82
2021/06/21 02:49:37;;;;;;;12.10;10.68;;;20.70;99.90;;;;;;5070011;28;20024;-86
2021/06/21 02:52:03;;;;;;;14.13;12.63;;;20.60;99.90;;;;;;5063061;28;20021;-84
2021/06/21 02:54:40;;;;;;;13.40;12.00;;;20.50;99.90;;;;;;5069092;28;20056;-85
2021/06/21 02:57:44;;;;;;;12.80;11.50;;;20.50;99.90;;;;;;5071401;28;20155;-82
2021/06/21 03:00:11;;;;;;;12.38;11.23;;;20.30;99.90;;;;;;5030981;28;20129;-81
2021/06/21 03:02:39;;;;;;;13.32;11.98;;;20.30;99.90;;;;;;5062083;28;20036;-82
2021/06/21 03:05:06;;;;;;;13.25;11.95;;;20.30;99.90;;;;;;5070562;28;20397;-82
2021/06/21 03:07:34;;;;;;;12.02;10.93;;;20.30;99.90;;;;;;5068976;28;20115;-83
2021/06/21 03:10:00;;;;;;;12.27;10.98;;;20.30;99.90;;;;;;5069861;28;20016;-83
2021/06/21 03:12:28;;;;;;;10.68;9.68;;;20.40;99.90;;;;;;5070077;28;20021;-84
2021/06/21 03:14:54;;;;;;;9.50;8.60;;;20.40;99.90;;;;;;5066450;28;20086;-84
2021/06/21 03:17:21;;;;;;;9.45;8.57;;;20.50;99.90;;;;;;5039198;28;20413;-84
2021/06/21 03:19:47;;;;;;;10.20;9.30;;;20.50;99.90;;;;;;5028697;28;20131;-84
2021/06/21 03:22:16;;;;;;;10.65;9.75;;;20.50;99.90;;;;;;5029064;28;20029;-84
2021/06/21 03:24:41;;;;;;;10.95;9.85;;;20.50;99.90;;;;;;5032963;28;20743;-82
2021/06/21 03:27:07;;;;;;;10.20;9.27;;;20.40;99.90;;;;;;5028824;28;20033;-84
2021/06/21 03:29:36;;;;;;;12.60;11.40;;;20.40;99.90;;;;;;5029631;28;20025;-82
2021/06/21 03:32:26;;;;;;;11.55;10.40;;;20.30;99.90;;;;;;5028688;28;20057;-87
2021/06/21 03:34:54;;;;;;;13.07;11.70;;;20.40;99.90;;;;;;5029615;28;20041;-83
2021/06/21 03:37:20;;;;;;;11.60;10.40;;;20.30;99.90;;;;;;5030026;28;20036;-83
2021/06/21 03:39:45;;;;;;;11.13;9.85;;;20.30;99.90;;;;;;5029278;28;20108;-82
2021/06/21 03:42:11;;;;;;;10.27;8.93;;;20.30;99.90;;;;;;5028450;28;20026;-83
2021/06/21 03:44:37;;;;;;;7.97;7.28;;;20.30;99.90;;;;;;5029679;28;20043;-83
2021/06/21 03:47:02;;;;;;;10.02;8.98;;;20.30;99.90;;;;;;5029573;28;20090;-83
2021/06/21 03:49:28;;;;;;;9.63;8.63;;;20.30;99.90;;;;;;5027913;28;20370;-83
2021/06/21 03:51:54;;;;;;;8.88;8.00;;;20.30;99.90;;;;;;5029412;28;20467;-83
2021/06/21 03:54:19;;;;;;;10.50;8.70;;;20.30;99.90;;;;;;5033911;28;20390;-82
2021/06/21 03:56:45;;;;;;;8.80;7.90;;;20.10;99.90;;;;;;5033839;28;20052;-83
2021/06/21 03:59:11;;;;;;;8.85;7.70;;;20.10;99.90;;;;;;5032025;28;20025;-83
2021/06/21 04:01:36;;;;;;;8.77;7.88;;;20.20;99.90;;;;;;5031928;28;20026;-82
2021/06/21 04:04:02;;;;;;;8.40;7.43;;;20.20;99.90;;;;;;5032370;28;20142;-82
2021/06/21 04:06:27;;;;;;;7.20;6.43;;;20.20;99.90;;;;;;5033445;28;20029;-82
2021/06/21 04:08:53;;;;;;;7.57;6.88;;;20.10;99.90;;;;;;5031885;28;20454;-83
2021/06/21 04:11:19;;;;;;;7.47;6.65;;;20.20;99.90;;;;;;5033298;28;20045;-83
2021/06/21 04:13:44;;;;;;;7.10;6.07;;;20.20;99.90;;;;;;5033617;28;20033;-82
2021/06/21 04:16:10;;;;;;;6.90;6.20;;;20.20;99.90;;;;;;5033477;28;20111;-81
2021/06/21 04:18:36;;;;;;;6.43;5.68;;;20.20;99.90;;;;;;5033664;28;20425;-87
2021/06/21 04:21:01;;;;;;;6.90;6.20;;;20.20;99.90;;;;;;5031274;28;20104;-86
2021/06/21 04:23:27;;;;;;;5.53;5.00;;;20.00;99.40;;;;;;5033593;28;20490;-82
2021/06/21 04:25:53;;;;;;;5.13;4.43;;;20.00;99.90;;;;;;5032033;28;20111;-85
2021/06/21 04:28:18;;;;;;;5.78;5.20;;;20.00;99.70;;;;;;5032630;28;20028;-81
2021/06/21 04:30:45;;;;;;;6.88;6.25;;;20.10;99.90;;;;;;5035926;28;20036;-82
2021/06/21 04:33:11;;;;;;;6.30;5.70;;;20.00;99.40;;;;;;5033602;28;20021;-88
2021/06/21 04:35:37;;;;;;;7.43;6.55;;;20.00;99.60;;;;;;5031742;28;20026;-84
2021/06/21 04:38:03;;;;;;;7.28;6.57;;;19.90;99.50;;;;;;5032782;28;20034;-82
2021/06/21 04:40:32;;;;;;;8.07;7.20;;;20.00;99.90;;;;;;5031229;28;20061;-85
2021/06/21 04:42:58;;;;;;;8.48;7.32;;;19.90;99.90;;;;;;5033448;28;20021;-83
2021/06/21 04:45:25;;;;;;;6.22;5.63;;;19.80;99.50;;;;;;5032752;28;20044;-84
2021/06/21 04:47:50;;;;;;;6.38;5.68;;;19.80;99.90;;;;;;5032632;28;20093;-84
2021/06/21 04:50:18;;;;;;;6.28;5.13;;;19.80;99.90;;;;;;5031773;28;20022;-87
2021/06/21 04:52:46;;;;;;;8.07;7.28;;;19.80;99.90;;;;;;5032842;28;20498;-84
2021/06/21 04:55:13;;;;;;;7.83;6.70;;;19.80;99.70;;;;;;5055923;28;20013;-87
2021/06/21 04:57:39;;;;;;;7.15;6.45;;;19.80;99.90;;;;;;5055151;28;20415;-87
2021/06/21 05:00:17;;;;;;;7.63;6.93;;;19.80;99.90;;;;;;5046868;23;20068;-82
2021/06/21 05:02:44;;;;;;;8.63;7.82;;;19.80;99.90;;;;;;5013617;28;20438;-82
2021/06/21 05:05:10;;;;;;;9.35;8.50;;;19.90;99.90;;;;;;5012131;28;20533;-85
2021/06/21 05:07:38;;;;;;;8.93;8.13;;;19.90;99.90;;;;;;5012306;28;20029;-85
2021/06/21 05:10:05;;;;;;;7.88;7.18;;;19.90;99.90;;;;;;5011885;28;20022;-82
2021/06/21 05:12:31;;;;;;;9.60;8.70;;;19.80;99.90;;;;;;5012365;28;20041;-83
2021/06/21 05:14:56;;;;;;;10.55;9.52;;;19.80;99.60;;;;;;5028754;28;20367;-84
2021/06/21 05:17:22;;;;;;;10.48;9.43;;;19.80;99.70;;;;;;5012242;28;20057;-82
2021/06/21 05:19:48;;;;;;;9.07;8.23;;;19.70;99.90;;;;;;5012103;28;20030;-82
2021/06/21 05:22:13;;;;;;;11.13;9.98;;;19.70;99.90;;;;;;5012289;28;20570;-82
2021/06/21 05:24:39;;;;;;;10.75;9.75;;;19.60;99.90;;;;;;5013576;28;20037;-83
2021/06/21 05:27:05;;;;;;;11.65;10.43;;;19.60;99.90;;;;;;5012240;28;20033;-83
2021/06/21 05:29:30;;;;;;;10.82;9.80;;;19.60;99.80;;;;;;5011830;28;20021;-82
2021/06/21 05:31:56;;;;;;;11.07;9.98;;;19.50;99.70;;;;;;5012260;28;20022;-82
2021/06/21 05:34:22;;;;;;;14.25;11.52;;;19.40;99.70;;;;;;5012309;28;20344;-84
2021/06/21 05:36:49;;;;;;;13.90;12.50;;;19.40;99.90;;;;;;5013767;28;20033;-83
2021/06/21 05:39:14;;;;;;;15.15;13.73;;;19.30;99.90;;;;;;5014916;28;20084;-82
2021/06/21 05:41:40;;;;;;;15.65;14.05;;;19.30;99.90;;;;;;5012126;28;20502;-84
2021/06/21 05:44:06;;;;;;;14.77;13.20;;;19.30;99.90;;;;;;5015296;28;20049;-83
2021/06/21 05:46:31;;;;;;;17.88;14.70;;;19.20;99.90;;;;;;5015815;28;20192;-82
2021/06/21 05:48:57;;;;;;;14.57;13.18;;;19.10;99.90;;;;;;5020909;28;20056;-83
2021/06/21 05:51:22;;;;;;;13.27;11.98;;;19.00;99.90;;;;;;5021452;28;20026;-84
2021/06/21 05:53:48;;;;;;;13.68;11.98;;;19.00;99.90;;;;;;5024876;28;20033;-85
2021/06/21 05:56:16;;;;;;;14.55;13.02;;;19.00;99.90;;;;;;5024193;28;20034;-87
2021/06/21 05:58:42;;;;;;;14.55;13.10;;;19.00;99.90;;;;;;5026089;28;20033;-86
2021/06/21 06:01:08;;;;;;;14.70;13.23;;;19.00;99.90;;;;;;5025680;28;20044;-83
2021/06/21 06:03:34;;;;;;;16.45;13.85;;;19.00;99.90;;;;;;5020357;28;20339;-86
2021/06/21 06:06:01;;;;;;;14.85;13.32;;;18.90;99.90;;;;;;5021225;28;20451;-82
2021/06/21 06:08:27;;;;;;;16.38;14.68;;;18.90;99.90;;;;;;5018207;28;20026;-83
2021/06/21 06:10:53;;;;;;;16.05;14.10;;;18.90;99.90;;;;;;5016185;28;20025;-84
2021/06/21 06:13:19;;;;;;;17.42;15.55;;;19.00;99.90;;;;;;5031987;28;20087;-87
2021/06/21 06:15:44;;;;;;;17.20;14.18;;;18.90;99.90;;;;;;5011216;28;20093;-84
2021/06/21 06:18:10;;;;;;;16.13;13.70;;;18.80;99.90;;;;;;5015741;28;20029;-84
2021/06/21 06:20:36;;;;;;;19.20;14.68;;;18.90;99.90;;;;;;5016647;28;20105;-83
2021/06/21 06:23:04;;;;;;;14.23;12.35;;;18.80;99.90;;;;;;5014894;28;20129;-84
2021/06/21 06:25:31;;;;;;;13.75;10.90;;;18.90;99.90;;;;;;5015188;28;20049;-83
2021/06/21 06:27:58;;;;;;;15.38;10.55;;;19.00;99.90;;;;;;5030928;28;20053;-83
2021/06/21 06:30:24;;;;;;;15.05;11.77;;;19.00;99.90;;;;;;5013569;28;20101;-85
2021/06/21 06:32:50;;;;;;;15.23;11.43;;;19.00;99.90;;;;;;5018742;28;20025;-84
2021/06/21 06:35:16;;;;;;;15.07;12.00;;;19.00;99.90;;;;;;5013934;28;20030;-84
2021/06/21 06:37:42;;;;;;;14.80;12.30;;;18.90;99.90;;;;;;5011520;28;20105;-84
2021/06/21 06:40:09;;;;;;;12.55;11.25;;;18.90;99.90;;;;;;5009541;28;20053;-84
2021/06/21 06:42:35;;;;;;;14.30;10.93;;;18.80;99.90;;;;;;5010194;28;20034;-84
2021/06/21 06:45:01;;;;;;;13.00;10.93;;;18.80;99.90;;;;;;5010324;28;20474;-84
2021/06/21 06:47:27;;;;;;;13.60;10.93;;;18.90;99.90;;;;;;5010846;28;20118;-84
2021/06/21 06:49:53;;;;;;;14.48;11.13;;;19.00;99.90;;;;;;5009119;28;20033;-84
2021/06/21 06:52:21;;;;;;;14.35;10.48;;;18.90;99.90;;;;;;5009764;28;20394;-84
2021/06/21 06:57:32;;;;;;;13.23;10.52;;;19.00;99.90;;;;;;5013244;28;20033;-84
2021/06/21 06:59:57;;;;;;;10.27;9.18;;;19.00;99.90;;;;;;5011381;28;20680;-85
2021/06/21 07:02:23;;;;;;;14.10;10.40;;;19.00;99.90;;;;;;5026492;28;20161;-85
2021/06/21 07:04:49;;;;;;;10.25;9.23;;;19.00;99.90;;;;;;5011961;28;20086;-86
2021/06/21 07:07:17;;;;;;;14.70;10.40;;;19.00;99.90;;;;;;5028650;28;20021;-86
2021/06/21 07:09:43;;;;;;;11.40;9.68;;;19.00;99.90;;;;;;5013940;28;20053;-84
2021/06/21 07:12:09;;;;;;;11.60;8.43;;;19.00;99.90;;;;;;5031006;28;20033;-84
2021/06/21 07:14:35;;;;;;;12.23;9.10;;;19.10;99.90;;;;;;5016268;28;20046;-83
2021/06/21 07:17:01;;;;;;;10.68;8.85;;;19.00;99.90;;;;;;5016015;28;20041;-87
2021/06/21 07:19:26;;;;;;;11.90;9.13;;;19.00;99.90;;;;;;5026584;28;20042;-85
2021/06/21 07:21:53;;;;;;;11.10;9.00;;;19.10;99.90;;;;;;5032259;28;20550;-84
2021/06/21 07:24:19;;;;;;;10.98;9.32;;;19.10;99.90;;;;;;5019322;28;20073;-84
2021/06/21 07:26:47;;;;;;;10.43;8.05;;;19.10;99.90;;;;;;5020460;28;20083;-86
2021/06/21 07:29:12;;;;;;;10.45;8.25;;;19.10;99.90;;;;;;5022525;28;20046;-85
2021/06/21 07:31:38;;;;;;;11.13;9.13;;;19.10;99.90;;;;;;5035979;28;20034;-86
2021/06/21 07:34:04;;;;;;;10.65;8.43;;;19.10;99.90;;;;;;5037338;28;20032;-84
2021/06/21 07:36:32;;;;;;;10.25;9.10;;;19.10;99.90;;;;;;5043704;28;20025;-84
2021/06/21 07:38:57;;;;;;;10.57;9.07;;;19.10;99.90;;;;;;5042919;28;20041;-82
2021/06/21 07:41:23;;;;;;;12.48;10.00;;;19.10;99.90;;;;;;5033167;28;20030;-83
2021/06/21 07:43:50;;;;;;;12.00;10.65;;;19.00;99.90;;;;;;5013513;28;20026;-84
2021/06/21 07:46:16;;;;;;;9.82;8.82;;;19.00;99.90;;;;;;5012539;28;20030;-84
2021/06/21 07:48:42;;;;;;;11.23;8.50;;;19.00;99.90;;;;;;5014436;28;20018;-84
2021/06/21 07:51:13;;;;;;;10.05;8.27;;;19.10;99.90;;;;;;5014456;28;20029;-84
2021/06/21 07:53:40;;;;;;;9.70;7.82;;;19.10;99.90;;;;;;5029433;28;20025;-85
2021/06/21 07:56:06;;;;;;;10.40;7.55;;;19.00;99.90;;;;;;5029783;28;20438;-84
2021/06/21 07:58:33;;;;;;;9.93;8.27;;;19.00;99.90;;;;;;5031297;28;20033;-85
2021/06/21 08:00:59;;;;;;;9.98;7.43;;;19.00;99.90;;;;;;5030576;28;20056;-85
2021/06/21 08:03:25;;;;;;;8.48;7.57;;;19.00;99.90;;;;;;5015553;28;20547;-85
2021/06/21 08:05:51;;;;;;;8.35;6.35;;;19.10;99.90;;;;;;5015719;28;20037;-85
2021/06/21 08:08:18;;;;;;;10.23;8.05;;;19.10;99.90;;;;;;5030910;28;20018;-85
2021/06/21 08:10:44;;;;;;;8.77;7.63;;;19.10;99.90;;;;;;5030699;28;20497;-85
2021/06/21 08:13:11;;;;;;;10.50;7.38;;;19.00;99.90;;;;;;5030908;28;20447;-85
2021/06/21 08:15:37;;;;;;;8.35;7.18;;;19.00;99.90;;;;;;5030866;28;20052;-85
2021/06/21 08:18:06;;;;;;;9.80;7.50;;;19.00;99.90;;;;;;5030850;28;20022;-85
2021/06/21 08:20:32;;;;;;;8.68;7.43;;;19.10;99.90;;;;;;5015652;28;20026;-85
2021/06/21 08:22:58;;;;;;;10.68;8.05;;;19.20;99.90;;;;;;5015556;28;20037;-84
2021/06/21 08:25:24;;;;;;;10.40;7.57;;;19.20;99.90;;;;;;5015617;28;20022;-85
2021/06/21 08:27:50;;;;;;;17.00;7.40;;;19.20;99.90;;;;;;5030788;28;20072;-85
2021/06/21 08:30:16;;;;;;;9.23;8.07;;;19.20;99.90;;;;;;5030691;28;20029;-85
2021/06/21 08:32:42;;;;;;;10.02;7.75;;;19.20;99.90;;;;;;5014356;28;20052;-85
2021/06/21 08:35:09;;;;;;;12.05;10.38;;;19.20;99.90;;;;;;5030627;28;20054;-85
2021/06/21 08:37:35;;;;;;;11.00;9.60;;;19.20;99.80;;;;;;5013545;28;20030;-84
2021/06/21 08:40:04;;;;;;;11.02;9.48;;;19.10;99.90;;;;;;5030542;28;20114;-85
2021/06/21 08:42:30;;;;;;;12.65;11.35;;;19.10;99.90;;;;;;5015253;28;20029;-85
2021/06/21 08:44:57;;;;;;;13.57;12.10;;;19.10;99.90;;;;;;5013982;28;20033;-85
2021/06/21 08:47:25;;;;;;;16.02;12.88;;;19.10;99.80;;;;;;5013964;28;20021;-85
2021/06/21 08:49:51;;;;;;;16.33;14.20;;;19.10;99.90;;;;;;5013725;28;20072;-85
2021/06/21 08:52:19;;;;;;;15.43;13.05;;;19.10;99.90;;;;;;5013561;28;20017;-85
2021/06/21 08:54:44;;;;;;;16.80;13.03;;;19.10;99.90;;;;;;5015370;28;20021;-85
2021/06/21 08:57:10;;;;;;;18.35;14.10;;;19.10;99.90;;;;;;5013855;28;20376;-85
2021/06/21 08:59:39;;;;;;;23.73;16.70;;;19.10;99.90;;;;;;5013564;28;20070;-85
2021/06/21 09:02:05;;;;;;;31.27;22.05;;;19.20;99.90;;;;;;5014728;28;20025;-85
2021/06/21 09:04:37;;;;;;;27.55;19.85;;;19.20;99.80;;;;;;5013500;28;20030;-85
2021/06/21 09:07:21;;;;;;;32.03;22.80;;;19.20;99.80;;;;;;5013455;28;20034;-85
2021/06/21 09:09:49;;;;;;;32.72;22.45;;;19.10;99.80;;;;;;5013365;28;20022;-85
2021/06/21 09:12:26;;;;;;;38.08;24.08;;;19.00;99.50;;;;;;5013385;28;20453;-85
2021/06/21 09:14:57;;;;;;;35.70;24.17;;;19.00;99.80;;;;;;5013693;28;20049;-85
2021/06/21 09:17:29;;;;;;;31.52;21.75;;;18.90;99.80;;;;;;5014839;28;20076;-85
2021/06/21 09:19:59;;;;;;;29.60;20.05;;;18.90;99.90;;;;;;5014752;28;20026;-85
2021/06/21 09:22:37;;;;;;;31.38;20.10;;;18.90;99.90;;;;;;5013273;28;20030;-85
2021/06/21 09:25:24;;;;;;;28.33;19.60;;;18.80;99.90;;;;;;5013241;28;20022;-85
2021/06/21 09:27:53;;;;;;;16.05;11.57;;;18.90;99.90;;;;;;5013421;28;20017;-85
2021/06/21 09:30:19;;;;;;;17.20;11.00;;;18.90;99.90;;;;;;5014286;28;20026;-85
2021/06/21 09:32:51;;;;;;;19.15;12.43;;;18.80;99.90;;;;;;5014414;28;20454;-85
2021/06/21 09:35:29;;;;;;;12.98;8.57;;;18.80;99.90;;;;;;5014532;28;20077;-85
2021/06/21 09:37:55;;;;;;;8.53;6.47;;;18.80;99.90;;;;;;5013118;28;20536;-85
2021/06/21 09:40:26;;;;;;;8.73;5.88;;;18.70;99.90;;;;;;5014283;28;20034;-85
2021/06/21 09:42:52;;;;;;;7.65;6.05;;;18.60;99.90;;;;;;5029720;28;20491;-86
2021/06/21 09:45:18;;;;;;;8.20;6.10;;;18.60;99.90;;;;;;5029963;28;20032;-85
2021/06/21 09:47:43;;;;;;;8.80;6.47;;;18.60;99.90;;;;;;5029556;28;20113;-85
2021/06/21 09:50:19;;;;;;;9.63;6.97;;;18.60;99.90;;;;;;5028480;28;20033;-85
2021/06/21 09:52:56;;;;;;;8.13;6.72;;;18.60;99.90;;;;;;5029754;28;20394;-85
2021/06/21 09:55:33;;;;;;;9.55;6.93;;;18.50;99.90;;;;;;5014241;28;20124;-85
2021/06/21 09:58:10;;;;;;;7.20;6.35;;;18.50;99.90;;;;;;5029707;28;20112;-86
2021/06/21 10:00:41;;;;;;;5.90;5.30;;;18.40;99.90;;;;;;5029247;28;20099;-85
2021/06/21 10:03:13;;;;;;;5.57;4.95;;;18.40;99.90;;;;;;5029515;28;20033;-85
2021/06/21 10:05:43;;;;;;;6.25;4.93;;;18.30;99.90;;;;;;5028857;28;20120;-85
2021/06/21 10:08:11;;;;;;;6.10;5.10;;;18.20;99.90;;;;;;5013708;28;20022;-86
2021/06/21 10:10:37;;;;;;;5.55;4.95;;;18.20;99.90;;;;;;5028401;28;20502;-86
2021/06/21 10:13:05;;;;;;;7.32;4.28;;;18.10;99.90;;;;;;5028605;28;20046;-86
2021/06/21 10:15:31;;;;;;;5.22;4.18;;;18.20;99.90;;;;;;5028365;28;20026;-86
2021/06/21 10:17:56;;;;;;;5.53;4.32;;;18.10;99.90;;;;;;5029000;28;20026;-85
2021/06/21 10:20:22;;;;;;;4.38;2.88;;;18.10;99.90;;;;;;5013169;28;20026;-86
2021/06/21 10:22:48;;;;;;;3.33;2.83;;;18.10;99.90;;;;;;5013313;28;20067;-85
2021/06/21 10:25:14;;;;;;;4.63;2.90;;;18.10;99.90;;;;;;5028398;28;20026;-86
2021/06/21 10:27:44;;;;;;;2.78;2.35;;;18.10;99.90;;;;;;5028657;28;20026;-86
2021/06/21 10:30:13;;;;;;;3.55;2.08;;;18.10;99.90;;;;;;5011943;28;20018;-86
2021/06/21 10:32:39;;;;;;;;;;;18.10;99.90;;;;;;5029261;28;20038;-86
2021/06/21 10:35:05;;;;;;;3.67;2.55;;;18.10;99.90;;;;;;5012957;28;19916;-86
2021/06/21 10:37:31;;;;;;;2.20;1.48;;;18.00;99.90;;;;;;5013668;28;20026;-86
2021/06/21 10:40:09;;;;;;;2.78;1.40;;;18.00;99.90;;;;;;5032093;28;20030;-86
2021/06/21 10:42:42;;;;;;;2.97;1.83;;;18.00;99.90;;;;;;5032673;28;20495;-86
2021/06/21 10:45:19;;;;;;;3.10;1.77;;;17.90;99.90;;;;;;5032005;28;20029;-86
2021/06/21 10:48:15;;;;;;;2.13;1.70;;;18.00;99.90;;;;;;5031981;28;20431;-85
2021/06/21 10:50:52;;;;;;;1.88;1.30;;;17.90;99.90;;;;;;5010390;28;20045;-86
2021/06/21 10:53:19;;;;;;;1.40;1.30;;;17.90;99.90;;;;;;5012712;28;20021;-86
2021/06/21 10:55:50;;;;;;;2.15;1.30;;;18.00;99.90;;;;;;5012813;28;20064;-86
2021/06/21 10:58:15;;;;;;;1.10;1.00;;;17.90;99.90;;;;;;5011437;28;20037;-86
2021/06/21 11:00:43;;;;;;;1.90;1.00;;;18.00;99.90;;;;;;5012649;28;20048;-87
2021/06/21 11:03:30;;;;;;;2.00;0.97;;;17.90;99.90;;;;;;5027575;28;20036;-86
2021/06/21 11:06:06;;;;;;;1.65;1.20;;;17.90;99.90;;;;;;5011001;28;20292;-86
2021/06/21 11:08:51;;;;;;;2.88;1.27;;;18.00;99.90;;;;;;5027521;28;20442;-86
2021/06/21 11:11:35;;;;;;;2.67;1.40;;;17.90;99.90;;;;;;5010879;28;20555;-86
2021/06/21 11:14:11;;;;;;;4.35;1.40;;;17.80;99.90;;;;;;5010986;28;20437;-86
2021/06/21 11:16:41;;;;;;;4.70;3.10;;;17.70;99.90;;;;;;5027487;28;20076;-86
2021/06/21 11:19:13;;;;;;;3.67;3.00;;;17.60;99.90;;;;;;5026642;28;20053;-86
2021/06/21 11:21:48;;;;;;;4.40;2.40;;;17.50;99.70;;;;;;5010971;28;20402;-86
2021/06/21 11:24:35;;;;;;;4.93;2.60;;;17.50;99.80;;;;;;5027343;28;20026;-86
2021/06/21 11:27:09;;;;;;;4.50;2.60;;;17.40;99.90;;;;;;5011938;28;20105;-86
2021/06/21 11:29:41;;;;;;;4.10;2.55;;;17.50;99.90;;;;;;5027004;28;20148;-86
2021/06/21 11:32:08;;;;;;;4.03;2.53;;;17.50;99.90;;;;;;5010951;28;20467;-86
2021/06/21 11:34:57;;;;;;;4.07;3.03;;;17.60;99.90;;;;;;5012017;28;20022;-86
2021/06/21 11:37:43;;;;;;;4.05;2.30;;;17.60;99.90;;;;;;5012003;28;20388;-86
2021/06/21 11:40:26;;;;;;;5.28;2.20;;;17.70;99.90;;;;;;5010249;28;20030;-86
2021/06/21 11:42:58;;;;;;;3.97;2.78;;;17.60;99.90;;;;;;5010674;28;20025;-86
2021/06/21 11:45:53;;;;;;;4.90;3.55;;;17.70;99.90;;;;;;5010667;28;20030;-87
2021/06/21 11:48:37;;;;;;;4.88;2.83;;;17.80;99.50;;;;;;5027308;28;20502;-87
2021/06/21 11:51:16;;;;;;;6.10;3.78;;;17.90;99.60;;;;;;5026425;28;20019;-86
2021/06/21 11:53:43;;;;;;;5.65;3.20;;;18.00;99.40;;;;;;5027079;28;20029;-87
2021/06/21 11:56:21;;;;;;;4.22;2.80;;;18.10;99.60;;;;;;5011750;28;20036;-86
2021/06/21 11:58:50;;;;;;;5.03;2.58;;;18.20;99.60;;;;;;5026853;28;20048;-86
2021/06/21 12:01:17;;;;;;;2.75;1.83;;;18.20;99.10;;;;;;5026769;28;20042;-86
2021/06/21 12:03:44;;;;;;;2.25;1.60;;;18.30;98.40;;;;;;5027100;28;20026;-86
2021/06/21 12:06:17;;;;;;;3.63;1.65;;;18.30;98.10;;;;;;5011069;28;20569;-86
2021/06/21 12:08:43;;;;;;;9.13;4.25;;;18.30;98.00;;;;;;5027252;28;20089;-86
2021/06/21 12:11:18;;;;;;;6.28;4.15;;;18.30;98.10;;;;;;5027347;28;20478;-86
2021/06/21 12:13:54;;;;;;;5.35;2.83;;;18.30;98.40;;;;;;5014121;28;20507;-86
2021/06/21 12:16:19;;;;;;;4.05;2.75;;;18.30;98.60;;;;;;5016593;28;20479;-86
2021/06/21 12:19:00;;;;;;;13.68;5.63;;;18.30;98.40;;;;;;5031244;28;20030;-86
2021/06/21 12:21:45;;;;;;;10.32;3.30;;;18.30;98.20;;;;;;5015152;28;20026;-86
2021/06/21 12:24:21;;;;;;;2.67;2.15;;;18.30;98.30;;;;;;5013941;28;20030;-86
2021/06/21 12:26:49;;;;;;;3.95;1.58;;;18.20;98.40;;;;;;5015320;28;20097;-86
2021/06/21 12:29:23;;;;;;;1.90;1.70;;;18.20;98.30;;;;;;5030275;28;20033;-86
2021/06/21 12:31:50;;;;;;;3.88;1.75;;;18.20;98.00;;;;;;5031124;28;20028;-86
2021/06/21 12:34:16;;;;;;;3.35;1.75;;;18.20;97.90;;;;;;5031147;28;20116;-86
2021/06/21 12:36:42;;;;;;;3.28;2.20;;;18.10;98.30;;;;;;5031167;28;20068;-86
2021/06/21 12:39:07;;;;;;;3.13;2.20;;;18.10;98.20;;;;;;5030186;28;20169;-86
2021/06/21 12:41:38;;;;;;;2.35;2.15;;;18.20;98.50;;;;;;5030610;28;20030;-86
2021/06/21 12:44:05;;;;;;;2.78;2.10;;;18.20;98.40;;;;;;5015009;28;20059;-86
2021/06/21 12:46:36;;;;;;;3.22;2.20;;;18.20;98.20;;;;;;5013579;28;20022;-86
2021/06/21 12:49:08;;;;;;;2.47;2.15;;;18.30;98.60;;;;;;5029216;28;20080;-86
2021/06/21 12:51:34;;;;;;;3.25;2.88;;;18.30;98.50;;;;;;5014400;28;20390;-86